sensor_id;sensor_type;location;lat;lon;timestamp;P1;durP1;ratioP1;P2;durP2;ratioP2
14137;SDS011;8199;51.310;9.466;2023-08-17T00:00:51;5.40;;;4.90;;
14137;SDS011;8199;51.310;9.466;2023-08-17T00:03:16;5.35;;;4.85;;
14137;SDS011;8199;51.310;9.466;2023-08-17T00:05:42;5.53;;;5.03;;
14137;SDS011;8199;51.310;9.466;2023-08-17T00:08:07;5.88;;;5.28;;
14137;SDS011;8199;51.310;9.466;2023-08-17T00:10:33;5.45;;;4.97;;
14137;SDS011;8199;51.310;9.466;2023-08-17T00:12:58;4.93;;;4.53;;
14137;SDS011;8199;51.310;9.466;2023-08-17T00:15:24;4.90;;;4.50;;
14137;SDS011;8199;51.310;9.466;2023-08-17T00:17:49;4.72;;;4.32;;
14137;SDS011;8199;51.310;9.466;2023-08-17T00:20:15;5.03;;;4.60;;
14137;SDS011;8199;51.310;9.466;2023-08-17T00:22:41;5.68;;;5.18;;
14137;SDS011;8199;51.310;9.466;2023-08-17T00:25:07;5.07;;;4.50;;
14137;SDS011;8199;51.310;9.466;2023-08-17T00:27:33;5.05;;;4.65;;
14137;SDS011;8199;51.310;9.466;2023-08-17T00:29:58;5.47;;;4.93;;
14137;SDS011;8199;51.310;9.466;2023-08-17T00:32:24;5.20;;;4.68;;
14137;SDS011;8199;51.310;9.466;2023-08-17T00:34:49;4.90;;;4.50;;
14137;SDS011;8199;51.310;9.466;2023-08-17T00:37:15;4.93;;;4.53;;
14137;SDS011;8199;51.310;9.466;2023-08-17T00:39:40;5.05;;;4.65;;
14137;SDS011;8199;51.310;9.466;2023-08-17T00:42:06;4.63;;;4.20;;
14137;SDS011;8199;51.310;9.466;2023-08-17T00:44:33;4.72;;;4.32;;
14137;SDS011;8199;51.310;9.466;2023-08-17T00:46:58;4.93;;;4.43;;
14137;SDS011;8199;51.310;9.466;2023-08-17T00:49:24;4.53;;;4.18;;
14137;SDS011;8199;51.310;9.466;2023-08-17T00:51:50;4.63;;;4.22;;
14137;SDS011;8199;51.310;9.466;2023-08-17T00:54:16;4.72;;;4.32;;
14137;SDS011;8199;51.310;9.466;2023-08-17T00:56:48;5.20;;;4.75;;
14137;SDS011;8199;51.310;9.466;2023-08-17T00:59:13;4.88;;;4.05;;
14137;SDS011;8199;51.310;9.466;2023-08-17T01:01:39;4.97;;;4.03;;
14137;SDS011;8199;51.310;9.466;2023-08-17T01:04:05;4.70;;;4.30;;
14137;SDS011;8199;51.310;9.466;2023-08-17T01:06:31;4.45;;;3.85;;
14137;SDS011;8199;51.310;9.466;2023-08-17T01:08:56;4.25;;;3.92;;
14137;SDS011;8199;51.310;9.466;2023-08-17T01:11:26;5.20;;;4.57;;
14137;SDS011;8199;51.310;9.466;2023-08-17T01:19:31;4.60;;;4.20;;
14137;SDS011;8199;51.310;9.466;2023-08-17T01:22:03;4.60;;;4.30;;
14137;SDS011;8199;51.310;9.466;2023-08-17T01:24:30;4.63;;;4.20;;
14137;SDS011;8199;51.310;9.466;2023-08-17T01:26:56;4.53;;;4.00;;
14137;SDS011;8199;51.310;9.466;2023-08-17T01:29:21;5.07;;;4.57;;
14137;SDS011;8199;51.310;9.466;2023-08-17T01:34:32;4.35;;;3.95;;
14137;SDS011;8199;51.310;9.466;2023-08-17T01:37:02;4.10;;;3.70;;
14137;SDS011;8199;51.310;9.466;2023-08-17T01:39:37;4.18;;;3.72;;
14137;SDS011;8199;51.310;9.466;2023-08-17T01:42:04;3.88;;;3.58;;
14137;SDS011;8199;51.310;9.466;2023-08-17T01:44:31;4.72;;;3.83;;
14137;SDS011;8199;51.310;9.466;2023-08-17T01:46:57;3.28;;;3.08;;
14137;SDS011;8199;51.310;9.466;2023-08-17T01:49:23;4.05;;;3.75;;
14137;SDS011;8199;51.310;9.466;2023-08-17T01:51:48;4.10;;;3.80;;
14137;SDS011;8199;51.310;9.466;2023-08-17T01:54:14;3.78;;;3.45;;
14137;SDS011;8199;51.310;9.466;2023-08-17T01:56:39;3.60;;;3.30;;
14137;SDS011;8199;51.310;9.466;2023-08-17T01:59:05;3.72;;;3.42;;
14137;SDS011;8199;51.310;9.466;2023-08-17T02:01:30;3.55;;;3.25;;
14137;SDS011;8199;51.310;9.466;2023-08-17T02:03:56;3.67;;;3.38;;
14137;SDS011;8199;51.310;9.466;2023-08-17T02:06:21;3.90;;;3.60;;
14137;SDS011;8199;51.310;9.466;2023-08-17T02:08:47;3.50;;;3.20;;
14137;SDS011;8199;51.310;9.466;2023-08-17T02:11:12;3.65;;;3.35;;
14137;SDS011;8199;51.310;9.466;2023-08-17T02:13:38;4.25;;;3.47;;
14137;SDS011;8199;51.310;9.466;2023-08-17T02:16:04;3.40;;;3.00;;
14137;SDS011;8199;51.310;9.466;2023-08-17T02:18:30;3.20;;;2.92;;
14137;SDS011;8199;51.310;9.466;2023-08-17T02:20:58;3.20;;;2.90;;
14137;SDS011;8199;51.310;9.466;2023-08-17T02:23:23;3.30;;;3.00;;
14137;SDS011;8199;51.310;9.466;2023-08-17T02:25:49;3.42;;;3.13;;
14137;SDS011;8199;51.310;9.466;2023-08-17T02:28:14;3.30;;;3.05;;
14137;SDS011;8199;51.310;9.466;2023-08-17T02:30:41;3.00;;;2.80;;
14137;SDS011;8199;51.310;9.466;2023-08-17T02:33:06;3.22;;;2.92;;
14137;SDS011;8199;51.310;9.466;2023-08-17T02:35:32;3.90;;;3.03;;
14137;SDS011;8199;51.310;9.466;2023-08-17T02:37:58;4.18;;;2.67;;
14137;SDS011;8199;51.310;9.466;2023-08-17T02:40:23;3.22;;;2.92;;
14137;SDS011;8199;51.310;9.466;2023-08-17T02:42:49;3.08;;;2.80;;
14137;SDS011;8199;51.310;9.466;2023-08-17T02:45:15;3.38;;;3.00;;
14137;SDS011;8199;51.310;9.466;2023-08-17T02:47:40;4.55;;;2.28;;
14137;SDS011;8199;51.310;9.466;2023-08-17T02:50:06;2.53;;;2.33;;
14137;SDS011;8199;51.310;9.466;2023-08-17T02:52:32;2.55;;;2.35;;
14137;SDS011;8199;51.310;9.466;2023-08-17T02:54:57;2.83;;;2.50;;
14137;SDS011;8199;51.310;9.466;2023-08-17T02:57:23;2.83;;;2.60;;
14137;SDS011;8199;51.310;9.466;2023-08-17T02:59:49;3.08;;;2.65;;
14137;SDS011;8199;51.310;9.466;2023-08-17T03:02:14;2.72;;;2.53;;
14137;SDS011;8199;51.310;9.466;2023-08-17T03:04:40;2.97;;;2.67;;
14137;SDS011;8199;51.310;9.466;2023-08-17T03:07:06;2.90;;;2.65;;
14137;SDS011;8199;51.310;9.466;2023-08-17T03:09:31;2.60;;;2.40;;
14137;SDS011;8199;51.310;9.466;2023-08-17T03:11:57;2.88;;;2.55;;
14137;SDS011;8199;51.310;9.466;2023-08-17T03:14:22;2.50;;;2.30;;
14137;SDS011;8199;51.310;9.466;2023-08-17T03:16:48;2.28;;;2.08;;
14137;SDS011;8199;51.310;9.466;2023-08-17T03:19:14;2.60;;;2.40;;
14137;SDS011;8199;51.310;9.466;2023-08-17T03:21:40;2.60;;;2.40;;
14137;SDS011;8199;51.310;9.466;2023-08-17T03:24:05;2.60;;;2.40;;
14137;SDS011;8199;51.310;9.466;2023-08-17T03:26:31;2.33;;;2.13;;
14137;SDS011;8199;51.310;9.466;2023-08-17T03:28:57;2.45;;;2.25;;
14137;SDS011;8199;51.310;9.466;2023-08-17T03:31:22;2.40;;;2.20;;
14137;SDS011;8199;51.310;9.466;2023-08-17T03:33:48;3.10;;;2.13;;
14137;SDS011;8199;51.310;9.466;2023-08-17T03:36:14;2.33;;;2.13;;
14137;SDS011;8199;51.310;9.466;2023-08-17T03:38:39;2.72;;;2.42;;
14137;SDS011;8199;51.310;9.466;2023-08-17T03:41:05;3.22;;;2.55;;
14137;SDS011;8199;51.310;9.466;2023-08-17T03:43:31;2.53;;;2.33;;
14137;SDS011;8199;51.310;9.466;2023-08-17T03:45:57;2.83;;;2.60;;
14137;SDS011;8199;51.310;9.466;2023-08-17T03:48:22;2.40;;;2.20;;
14137;SDS011;8199;51.310;9.466;2023-08-17T03:50:52;2.40;;;2.20;;
14137;SDS011;8199;51.310;9.466;2023-08-17T03:53:18;2.35;;;2.15;;
14137;SDS011;8199;51.310;9.466;2023-08-17T03:55:47;2.25;;;2.05;;
14137;SDS011;8199;51.310;9.466;2023-08-17T03:58:17;2.35;;;2.15;;
14137;SDS011;8199;51.310;9.466;2023-08-17T04:00:48;2.20;;;2.00;;
14137;SDS011;8199;51.310;9.466;2023-08-17T04:03:15;2.53;;;1.90;;
14137;SDS011;8199;51.310;9.466;2023-08-17T04:05:41;2.30;;;2.20;;
14137;SDS011;8199;51.310;9.466;2023-08-17T04:08:08;2.13;;;1.92;;
14137;SDS011;8199;51.310;9.466;2023-08-17T04:10:33;2.45;;;2.10;;
14137;SDS011;8199;51.310;9.466;2023-08-17T04:12:59;2.17;;;2.00;;
14137;SDS011;8199;51.310;9.466;2023-08-17T04:15:25;2.00;;;1.90;;
14137;SDS011;8199;51.310;9.466;2023-08-17T04:17:50;2.10;;;1.92;;
14137;SDS011;8199;51.310;9.466;2023-08-17T04:20:16;2.05;;;1.88;;
14137;SDS011;8199;51.310;9.466;2023-08-17T04:22:43;2.50;;;2.08;;
14137;SDS011;8199;51.310;9.466;2023-08-17T04:25:09;1.80;;;1.70;;
14137;SDS011;8199;51.310;9.466;2023-08-17T04:27:34;2.17;;;1.88;;
14137;SDS011;8199;51.310;9.466;2023-08-17T04:30:00;2.00;;;1.80;;
14137;SDS011;8199;51.310;9.466;2023-08-17T04:32:26;1.95;;;1.80;;
14137;SDS011;8199;51.310;9.466;2023-08-17T04:34:52;1.92;;;1.73;;
14137;SDS011;8199;51.310;9.466;2023-08-17T04:37:17;2.40;;;2.20;;
14137;SDS011;8199;51.310;9.466;2023-08-17T04:39:43;2.20;;;1.98;;
14137;SDS011;8199;51.310;9.466;2023-08-17T04:42:09;2.10;;;1.90;;
14137;SDS011;8199;51.310;9.466;2023-08-17T04:44:35;2.00;;;1.90;;
14137;SDS011;8199;51.310;9.466;2023-08-17T04:47:01;1.98;;;1.77;;
14137;SDS011;8199;51.310;9.466;2023-08-17T04:49:27;1.90;;;1.70;;
14137;SDS011;8199;51.310;9.466;2023-08-17T04:51:52;1.88;;;1.77;;
14137;SDS011;8199;51.310;9.466;2023-08-17T04:54:18;2.10;;;1.70;;
14137;SDS011;8199;51.310;9.466;2023-08-17T04:56:44;3.03;;;1.98;;
14137;SDS011;8199;51.310;9.466;2023-08-17T04:59:09;2.05;;;1.73;;
14137;SDS011;8199;51.310;9.466;2023-08-17T05:01:35;1.92;;;1.77;;
14137;SDS011;8199;51.310;9.466;2023-08-17T05:04:01;13.13;;;2.72;;
14137;SDS011;8199;51.310;9.466;2023-08-17T05:06:30;2.92;;;1.90;;
14137;SDS011;8199;51.310;9.466;2023-08-17T05:08:55;3.15;;;1.98;;
14137;SDS011;8199;51.310;9.466;2023-08-17T05:11:21;6.32;;;2.40;;
14137;SDS011;8199;51.310;9.466;2023-08-17T05:13:47;5.35;;;2.40;;
14137;SDS011;8199;51.310;9.466;2023-08-17T05:16:12;8.55;;;2.83;;
14137;SDS011;8199;51.310;9.466;2023-08-17T05:18:38;10.32;;;2.50;;
14137;SDS011;8199;51.310;9.466;2023-08-17T05:21:03;5.40;;;2.40;;
14137;SDS011;8199;51.310;9.466;2023-08-17T05:23:29;3.75;;;2.20;;
14137;SDS011;8199;51.310;9.466;2023-08-17T05:25:54;4.00;;;2.22;;
14137;SDS011;8199;51.310;9.466;2023-08-17T05:28:20;3.85;;;2.20;;
14137;SDS011;8199;51.310;9.466;2023-08-17T05:30:46;4.05;;;2.42;;
14137;SDS011;8199;51.310;9.466;2023-08-17T05:33:11;5.25;;;2.20;;
14137;SDS011;8199;51.310;9.466;2023-08-17T05:35:37;4.30;;;2.20;;
14137;SDS011;8199;51.310;9.466;2023-08-17T05:38:03;4.65;;;2.28;;
14137;SDS011;8199;51.310;9.466;2023-08-17T05:40:29;4.55;;;2.40;;
14137;SDS011;8199;51.310;9.466;2023-08-17T05:42:55;3.88;;;2.38;;
14137;SDS011;8199;51.310;9.466;2023-08-17T05:45:21;6.13;;;2.40;;
14137;SDS011;8199;51.310;9.466;2023-08-17T05:47:47;4.43;;;2.30;;
14137;SDS011;8199;51.310;9.466;2023-08-17T05:50:12;3.72;;;2.50;;
14137;SDS011;8199;51.310;9.466;2023-08-17T05:52:40;4.95;;;3.10;;
14137;SDS011;8199;51.310;9.466;2023-08-17T05:55:06;4.60;;;2.50;;
14137;SDS011;8199;51.310;9.466;2023-08-17T05:57:32;3.80;;;2.42;;
14137;SDS011;8199;51.310;9.466;2023-08-17T05:59:58;3.83;;;2.85;;
14137;SDS011;8199;51.310;9.466;2023-08-17T06:02:24;4.10;;;2.72;;
14137;SDS011;8199;51.310;9.466;2023-08-17T06:04:49;7.00;;;2.80;;
14137;SDS011;8199;51.310;9.466;2023-08-17T06:07:15;4.65;;;3.22;;
14137;SDS011;8199;51.310;9.466;2023-08-17T06:09:40;7.88;;;4.10;;
14137;SDS011;8199;51.310;9.466;2023-08-17T06:12:06;8.15;;;3.90;;
14137;SDS011;8199;51.310;9.466;2023-08-17T06:14:34;5.50;;;3.80;;
14137;SDS011;8199;51.310;9.466;2023-08-17T06:17:00;6.18;;;3.80;;
14137;SDS011;8199;51.310;9.466;2023-08-17T06:19:25;5.40;;;3.90;;
14137;SDS011;8199;51.310;9.466;2023-08-17T06:21:51;6.47;;;4.30;;
14137;SDS011;8199;51.310;9.466;2023-08-17T06:24:17;5.63;;;3.92;;
14137;SDS011;8199;51.310;9.466;2023-08-17T06:26:43;11.60;;;4.50;;
14137;SDS011;8199;51.310;9.466;2023-08-17T06:29:09;6.22;;;4.32;;
14137;SDS011;8199;51.310;9.466;2023-08-17T06:31:34;7.03;;;3.83;;
14137;SDS011;8199;51.310;9.466;2023-08-17T06:34:00;5.43;;;4.25;;
14137;SDS011;8199;51.310;9.466;2023-08-17T06:36:26;6.00;;;3.50;;
14137;SDS011;8199;51.310;9.466;2023-08-17T06:38:55;4.68;;;4.07;;
14137;SDS011;8199;51.310;9.466;2023-08-17T06:41:21;6.55;;;4.07;;
14137;SDS011;8199;51.310;9.466;2023-08-17T06:43:46;6.18;;;4.22;;
14137;SDS011;8199;51.310;9.466;2023-08-17T06:46:12;5.70;;;4.22;;
14137;SDS011;8199;51.310;9.466;2023-08-17T06:48:37;6.07;;;5.40;;
14137;SDS011;8199;51.310;9.466;2023-08-17T06:51:03;7.00;;;5.65;;
14137;SDS011;8199;51.310;9.466;2023-08-17T06:53:29;10.35;;;7.00;;
14137;SDS011;8199;51.310;9.466;2023-08-17T06:55:55;8.63;;;6.78;;
14137;SDS011;8199;51.310;9.466;2023-08-17T06:58:20;8.07;;;5.53;;
14137;SDS011;8199;51.310;9.466;2023-08-17T07:00:46;9.55;;;6.28;;
14137;SDS011;8199;51.310;9.466;2023-08-17T07:03:11;6.38;;;5.55;;
14137;SDS011;8199;51.310;9.466;2023-08-17T07:05:37;9.18;;;5.50;;
14137;SDS011;8199;51.310;9.466;2023-08-17T07:08:03;6.22;;;4.80;;
14137;SDS011;8199;51.310;9.466;2023-08-17T07:10:29;5.88;;;5.22;;
14137;SDS011;8199;51.310;9.466;2023-08-17T07:12:54;7.57;;;4.63;;
14137;SDS011;8199;51.310;9.466;2023-08-17T07:15:20;6.22;;;5.32;;
14137;SDS011;8199;51.310;9.466;2023-08-17T07:17:46;6.30;;;4.68;;
14137;SDS011;8199;51.310;9.466;2023-08-17T07:20:11;6.28;;;4.88;;
14137;SDS011;8199;51.310;9.466;2023-08-17T07:22:37;5.82;;;5.05;;
14137;SDS011;8199;51.310;9.466;2023-08-17T07:25:02;5.15;;;4.63;;
14137;SDS011;8199;51.310;9.466;2023-08-17T07:27:28;7.53;;;5.43;;
14137;SDS011;8199;51.310;9.466;2023-08-17T07:29:54;6.22;;;5.38;;
14137;SDS011;8199;51.310;9.466;2023-08-17T07:32:20;6.57;;;4.90;;
14137;SDS011;8199;51.310;9.466;2023-08-17T07:34:46;8.05;;;5.50;;
14137;SDS011;8199;51.310;9.466;2023-08-17T07:37:12;7.10;;;5.28;;
14137;SDS011;8199;51.310;9.466;2023-08-17T07:39:38;7.25;;;5.22;;
14137;SDS011;8199;51.310;9.466;2023-08-17T07:42:03;8.50;;;5.15;;
14137;SDS011;8199;51.310;9.466;2023-08-17T07:44:29;7.97;;;5.20;;
14137;SDS011;8199;51.310;9.466;2023-08-17T07:46:56;7.30;;;5.13;;
14137;SDS011;8199;51.310;9.466;2023-08-17T07:49:22;7.32;;;5.32;;
14137;SDS011;8199;51.310;9.466;2023-08-17T07:51:49;6.57;;;4.72;;
14137;SDS011;8199;51.310;9.466;2023-08-17T07:54:14;9.68;;;5.35;;
14137;SDS011;8199;51.310;9.466;2023-08-17T07:56:40;7.03;;;5.32;;
14137;SDS011;8199;51.310;9.466;2023-08-17T07:59:05;6.82;;;5.00;;
14137;SDS011;8199;51.310;9.466;2023-08-17T08:01:31;5.72;;;4.65;;
14137;SDS011;8199;51.310;9.466;2023-08-17T08:03:57;8.32;;;4.95;;
14137;SDS011;8199;51.310;9.466;2023-08-17T08:06:23;6.72;;;5.22;;
14137;SDS011;8199;51.310;9.466;2023-08-17T08:08:48;8.18;;;4.93;;
14137;SDS011;8199;51.310;9.466;2023-08-17T08:11:14;6.43;;;4.80;;
14137;SDS011;8199;51.310;9.466;2023-08-17T08:13:39;5.75;;;4.80;;
14137;SDS011;8199;51.310;9.466;2023-08-17T08:16:05;6.13;;;4.38;;
14137;SDS011;8199;51.310;9.466;2023-08-17T08:18:31;6.25;;;4.55;;
14137;SDS011;8199;51.310;9.466;2023-08-17T08:20:56;6.00;;;5.05;;
14137;SDS011;8199;51.310;9.466;2023-08-17T08:23:22;5.65;;;4.57;;
14137;SDS011;8199;51.310;9.466;2023-08-17T08:25:47;4.75;;;4.20;;
14137;SDS011;8199;51.310;9.466;2023-08-17T08:28:13;5.38;;;4.88;;
14137;SDS011;8199;51.310;9.466;2023-08-17T08:30:39;5.72;;;4.35;;
14137;SDS011;8199;51.310;9.466;2023-08-17T08:33:04;6.32;;;4.75;;
14137;SDS011;8199;51.310;9.466;2023-08-17T08:35:30;4.93;;;4.40;;
14137;SDS011;8199;51.310;9.466;2023-08-17T08:37:55;7.22;;;4.85;;
14137;SDS011;8199;51.310;9.466;2023-08-17T08:40:26;7.05;;;4.38;;
14137;SDS011;8199;51.310;9.466;2023-08-17T08:42:53;5.70;;;3.92;;
14137;SDS011;8199;51.310;9.466;2023-08-17T08:45:18;4.90;;;4.43;;
14137;SDS011;8199;51.310;9.466;2023-08-17T08:47:46;4.45;;;3.67;;
14137;SDS011;8199;51.310;9.466;2023-08-17T08:50:12;4.53;;;4.10;;
14137;SDS011;8199;51.310;9.466;2023-08-17T08:52:45;5.50;;;4.07;;
14137;SDS011;8199;51.310;9.466;2023-08-17T08:55:23;4.50;;;4.10;;
14137;SDS011;8199;51.310;9.466;2023-08-17T08:57:51;4.47;;;3.70;;
14137;SDS011;8199;51.310;9.466;2023-08-17T09:00:18;4.65;;;4.00;;
14137;SDS011;8199;51.310;9.466;2023-08-17T09:02:44;4.68;;;3.90;;
14137;SDS011;8199;51.310;9.466;2023-08-17T09:05:10;4.00;;;3.55;;
14137;SDS011;8199;51.310;9.466;2023-08-17T09:07:37;4.63;;;4.20;;
14137;SDS011;8199;51.310;9.466;2023-08-17T09:10:04;4.43;;;3.55;;
14137;SDS011;8199;51.310;9.466;2023-08-17T09:12:30;4.13;;;3.55;;
14137;SDS011;8199;51.310;9.466;2023-08-17T09:14:56;5.45;;;3.88;;
14137;SDS011;8199;51.310;9.466;2023-08-17T09:17:25;3.97;;;3.58;;
14137;SDS011;8199;51.310;9.466;2023-08-17T09:19:51;3.70;;;3.40;;
14137;SDS011;8199;51.310;9.466;2023-08-17T09:22:24;3.72;;;3.30;;
14137;SDS011;8199;51.310;9.466;2023-08-17T09:24:50;3.40;;;3.10;;
14137;SDS011;8199;51.310;9.466;2023-08-17T09:27:16;3.55;;;3.20;;
14137;SDS011;8199;51.310;9.466;2023-08-17T09:29:42;4.20;;;3.22;;
14137;SDS011;8199;51.310;9.466;2023-08-17T09:32:10;3.50;;;3.20;;
14137;SDS011;8199;51.310;9.466;2023-08-17T09:34:36;3.17;;;2.88;;
14137;SDS011;8199;51.310;9.466;2023-08-17T09:37:02;3.63;;;3.20;;
14137;SDS011;8199;51.310;9.466;2023-08-17T09:39:29;3.28;;;3.08;;
14137;SDS011;8199;51.310;9.466;2023-08-17T09:41:55;3.38;;;3.03;;
14137;SDS011;8199;51.310;9.466;2023-08-17T09:44:21;4.20;;;3.20;;
14137;SDS011;8199;51.310;9.466;2023-08-17T09:46:47;3.58;;;3.20;;
14137;SDS011;8199;51.310;9.466;2023-08-17T09:49:12;3.80;;;2.92;;
14137;SDS011;8199;51.310;9.466;2023-08-17T09:51:41;3.25;;;2.92;;
14137;SDS011;8199;51.310;9.466;2023-08-17T09:54:07;3.50;;;3.20;;
14137;SDS011;8199;51.310;9.466;2023-08-17T09:56:33;4.88;;;3.40;;
14137;SDS011;8199;51.310;9.466;2023-08-17T09:58:59;3.28;;;2.97;;
14137;SDS011;8199;51.310;9.466;2023-08-17T10:01:25;2.90;;;2.55;;
14137;SDS011;8199;51.310;9.466;2023-08-17T10:03:53;2.60;;;2.40;;
14137;SDS011;8199;51.310;9.466;2023-08-17T10:06:22;2.70;;;2.50;;
14137;SDS011;8199;51.310;9.466;2023-08-17T10:08:51;3.22;;;2.92;;
14137;SDS011;8199;51.310;9.466;2023-08-17T10:11:19;2.80;;;2.60;;
14137;SDS011;8199;51.310;9.466;2023-08-17T10:13:51;3.28;;;2.92;;
14137;SDS011;8199;51.310;9.466;2023-08-17T10:16:36;3.00;;;2.80;;
14137;SDS011;8199;51.310;9.466;2023-08-17T10:19:09;3.85;;;2.42;;
14137;SDS011;8199;51.310;9.466;2023-08-17T10:21:41;2.72;;;2.47;;
14137;SDS011;8199;51.310;9.466;2023-08-17T10:24:11;3.05;;;2.75;;
14137;SDS011;8199;51.310;9.466;2023-08-17T10:26:37;2.85;;;2.65;;
14137;SDS011;8199;51.310;9.466;2023-08-17T10:29:04;2.85;;;2.63;;
14137;SDS011;8199;51.310;9.466;2023-08-17T10:31:33;3.03;;;2.72;;
14137;SDS011;8199;51.310;9.466;2023-08-17T10:33:59;2.97;;;2.70;;
14137;SDS011;8199;51.310;9.466;2023-08-17T10:36:26;2.75;;;2.55;;
14137;SDS011;8199;51.310;9.466;2023-08-17T10:41:47;2.78;;;2.58;;
14137;SDS011;8199;51.310;9.466;2023-08-17T10:44:14;2.83;;;2.55;;
14137;SDS011;8199;51.310;9.466;2023-08-17T10:46:39;3.03;;;2.72;;
14137;SDS011;8199;51.310;9.466;2023-08-17T10:49:06;2.40;;;2.20;;
14137;SDS011;8199;51.310;9.466;2023-08-17T10:52:04;2.55;;;2.35;;
14137;SDS011;8199;51.310;9.466;2023-08-17T10:54:41;2.55;;;2.35;;
14137;SDS011;8199;51.310;9.466;2023-08-17T11:00:06;2.40;;;2.20;;
14137;SDS011;8199;51.310;9.466;2023-08-17T11:02:36;2.70;;;2.50;;
14137;SDS011;8199;51.310;9.466;2023-08-17T11:05:03;2.78;;;2.58;;
14137;SDS011;8199;51.310;9.466;2023-08-17T11:07:38;2.65;;;2.45;;
14137;SDS011;8199;51.310;9.466;2023-08-17T11:10:49;2.75;;;2.55;;
14137;SDS011;8199;51.310;9.466;2023-08-17T11:12:56;2.60;;;2.40;;
14137;SDS011;8199;51.310;9.466;2023-08-17T11:15:30;2.55;;;2.35;;
14137;SDS011;8199;51.310;9.466;2023-08-17T11:18:03;2.60;;;2.40;;
14137;SDS011;8199;51.310;9.466;2023-08-17T11:20:29;2.75;;;2.55;;
14137;SDS011;8199;51.310;9.466;2023-08-17T11:22:55;2.28;;;2.08;;
14137;SDS011;8199;51.310;9.466;2023-08-17T11:25:23;2.50;;;2.30;;
14137;SDS011;8199;51.310;9.466;2023-08-17T11:27:48;2.47;;;2.28;;
14137;SDS011;8199;51.310;9.466;2023-08-17T11:30:15;2.78;;;2.58;;
14137;SDS011;8199;51.310;9.466;2023-08-17T11:32:40;2.70;;;2.50;;
14137;SDS011;8199;51.310;9.466;2023-08-17T11:35:06;3.20;;;2.40;;
14137;SDS011;8199;51.310;9.466;2023-08-17T11:37:33;2.40;;;2.20;;
14137;SDS011;8199;51.310;9.466;2023-08-17T11:39:59;2.53;;;2.20;;
14137;SDS011;8199;51.310;9.466;2023-08-17T11:42:24;3.13;;;2.60;;
14137;SDS011;8199;51.310;9.466;2023-08-17T11:44:50;2.58;;;2.38;;
14137;SDS011;8199;51.310;9.466;2023-08-17T11:47:16;2.70;;;2.25;;
14137;SDS011;8199;51.310;9.466;2023-08-17T11:49:41;2.30;;;2.20;;
14137;SDS011;8199;51.310;9.466;2023-08-17T11:52:09;2.65;;;2.45;;
14137;SDS011;8199;51.310;9.466;2023-08-17T11:54:39;2.42;;;2.22;;
14137;SDS011;8199;51.310;9.466;2023-08-17T11:57:05;2.90;;;2.28;;
14137;SDS011;8199;51.310;9.466;2023-08-17T11:59:31;2.40;;;2.22;;
14137;SDS011;8199;51.310;9.466;2023-08-17T12:01:58;2.42;;;2.25;;
14137;SDS011;8199;51.310;9.466;2023-08-17T12:04:25;2.83;;;2.50;;
14137;SDS011;8199;51.310;9.466;2023-08-17T12:06:51;2.25;;;2.05;;
14137;SDS011;8199;51.310;9.466;2023-08-17T12:09:17;3.90;;;2.15;;
14137;SDS011;8199;51.310;9.466;2023-08-17T12:11:44;2.58;;;2.38;;
14137;SDS011;8199;51.310;9.466;2023-08-17T12:14:11;2.75;;;2.35;;
14137;SDS011;8199;51.310;9.466;2023-08-17T12:16:49;2.63;;;2.42;;
14137;SDS011;8199;51.310;9.466;2023-08-17T12:19:14;2.58;;;2.20;;
14137;SDS011;8199;51.310;9.466;2023-08-17T12:21:40;2.50;;;2.30;;
14137;SDS011;8199;51.310;9.466;2023-08-17T12:24:08;2.38;;;2.13;;
14137;SDS011;8199;51.310;9.466;2023-08-17T12:26:35;3.13;;;2.50;;
14137;SDS011;8199;51.310;9.466;2023-08-17T12:29:01;2.47;;;2.28;;
14137;SDS011;8199;51.310;9.466;2023-08-17T12:31:30;2.55;;;2.35;;
14137;SDS011;8199;51.310;9.466;2023-08-17T12:33:56;2.53;;;2.33;;
14137;SDS011;8199;51.310;9.466;2023-08-17T12:36:22;2.30;;;2.10;;
14137;SDS011;8199;51.310;9.466;2023-08-17T12:38:47;2.17;;;2.05;;
14137;SDS011;8199;51.310;9.466;2023-08-17T12:41:13;2.20;;;2.00;;
14137;SDS011;8199;51.310;9.466;2023-08-17T12:43:38;2.45;;;2.25;;
14137;SDS011;8199;51.310;9.466;2023-08-17T12:46:04;2.03;;;1.92;;
14137;SDS011;8199;51.310;9.466;2023-08-17T12:48:30;2.40;;;2.20;;
14137;SDS011;8199;51.310;9.466;2023-08-17T12:50:55;2.20;;;2.08;;
14137;SDS011;8199;51.310;9.466;2023-08-17T12:53:21;2.47;;;2.28;;
14137;SDS011;8199;51.310;9.466;2023-08-17T12:55:47;1.92;;;1.83;;
14137;SDS011;8199;51.310;9.466;2023-08-17T12:58:13;1.83;;;1.73;;
14137;SDS011;8199;51.310;9.466;2023-08-17T13:00:38;2.00;;;1.90;;
14137;SDS011;8199;51.310;9.466;2023-08-17T13:03:04;2.30;;;2.10;;
14137;SDS011;8199;51.310;9.466;2023-08-17T13:05:29;2.63;;;2.25;;
14137;SDS011;8199;51.310;9.466;2023-08-17T13:07:55;2.05;;;1.95;;
14137;SDS011;8199;51.310;9.466;2023-08-17T13:10:20;2.22;;;2.10;;
14137;SDS011;8199;51.310;9.466;2023-08-17T13:12:46;2.25;;;2.05;;
14137;SDS011;8199;51.310;9.466;2023-08-17T13:15:12;2.40;;;2.20;;
14137;SDS011;8199;51.310;9.466;2023-08-17T13:17:38;2.55;;;2.35;;
14137;SDS011;8199;51.310;9.466;2023-08-17T13:20:04;3.20;;;2.90;;
14137;SDS011;8199;51.310;9.466;2023-08-17T13:22:31;2.90;;;2.65;;
14137;SDS011;8199;51.310;9.466;2023-08-17T13:24:57;2.70;;;2.50;;
14137;SDS011;8199;51.310;9.466;2023-08-17T13:27:23;2.88;;;2.63;;
14137;SDS011;8199;51.310;9.466;2023-08-17T13:29:48;2.50;;;2.30;;
14137;SDS011;8199;51.310;9.466;2023-08-17T13:32:14;2.65;;;2.42;;
14137;SDS011;8199;51.310;9.466;2023-08-17T13:34:39;2.65;;;2.45;;
14137;SDS011;8199;51.310;9.466;2023-08-17T13:37:05;2.90;;;2.65;;
14137;SDS011;8199;51.310;9.466;2023-08-17T13:39:30;2.58;;;2.38;;
14137;SDS011;8199;51.310;9.466;2023-08-17T13:41:57;2.83;;;2.63;;
14137;SDS011;8199;51.310;9.466;2023-08-17T13:44:23;2.65;;;2.45;;
14137;SDS011;8199;51.310;9.466;2023-08-17T13:46:48;2.45;;;2.25;;
14137;SDS011;8199;51.310;9.466;2023-08-17T13:49:14;2.50;;;2.30;;
14137;SDS011;8199;51.310;9.466;2023-08-17T13:51:39;2.90;;;2.70;;
14137;SDS011;8199;51.310;9.466;2023-08-17T13:54:05;3.20;;;2.90;;
14137;SDS011;8199;51.310;9.466;2023-08-17T13:56:31;3.00;;;2.70;;
14137;SDS011;8199;51.310;9.466;2023-08-17T13:58:56;2.92;;;2.42;;
14137;SDS011;8199;51.310;9.466;2023-08-17T14:01:22;8.10;;;6.90;;
14137;SDS011;8199;51.310;9.466;2023-08-17T14:03:47;10.57;;;8.55;;
14137;SDS011;8199;51.310;9.466;2023-08-17T14:06:13;9.07;;;8.15;;
14137;SDS011;8199;51.310;9.466;2023-08-17T14:08:38;8.30;;;7.45;;
14137;SDS011;8199;51.310;9.466;2023-08-17T14:11:04;8.15;;;7.00;;
14137;SDS011;8199;51.310;9.466;2023-08-17T14:13:31;8.95;;;7.97;;
14137;SDS011;8199;51.310;9.466;2023-08-17T14:15:57;8.20;;;7.40;;
14137;SDS011;8199;51.310;9.466;2023-08-17T14:18:24;10.18;;;8.07;;
14137;SDS011;8199;51.310;9.466;2023-08-17T14:20:50;8.02;;;7.22;;
14137;SDS011;8199;51.310;9.466;2023-08-17T14:23:15;7.75;;;6.95;;
14137;SDS011;8199;51.310;9.466;2023-08-17T14:25:41;7.15;;;6.45;;
14137;SDS011;8199;51.310;9.466;2023-08-17T14:28:06;7.78;;;6.97;;
14137;SDS011;8199;51.310;9.466;2023-08-17T14:30:33;8.00;;;7.20;;
14137;SDS011;8199;51.310;9.466;2023-08-17T14:32:58;8.00;;;7.18;;
14137;SDS011;8199;51.310;9.466;2023-08-17T14:35:24;7.93;;;6.75;;
14137;SDS011;8199;51.310;9.466;2023-08-17T14:37:50;7.80;;;7.00;;
14137;SDS011;8199;51.310;9.466;2023-08-17T14:40:16;8.48;;;7.25;;
14137;SDS011;8199;51.310;9.466;2023-08-17T14:42:42;7.45;;;6.75;;
14137;SDS011;8199;51.310;9.466;2023-08-17T14:45:08;6.93;;;6.22;;
14137;SDS011;8199;51.310;9.466;2023-08-17T14:47:33;7.47;;;6.72;;
14137;SDS011;8199;51.310;9.466;2023-08-17T14:49:59;7.28;;;6.55;;
14137;SDS011;8199;51.310;9.466;2023-08-17T14:52:25;7.03;;;6.32;;
14137;SDS011;8199;51.310;9.466;2023-08-17T14:54:51;7.65;;;6.88;;
14137;SDS011;8199;51.310;9.466;2023-08-17T14:57:16;7.55;;;6.75;;
14137;SDS011;8199;51.310;9.466;2023-08-17T14:59:42;7.03;;;6.30;;
14137;SDS011;8199;51.310;9.466;2023-08-17T15:02:08;7.07;;;6.35;;
14137;SDS011;8199;51.310;9.466;2023-08-17T15:04:35;6.88;;;6.18;;
14137;SDS011;8199;51.310;9.466;2023-08-17T15:07:03;7.25;;;6.55;;
14137;SDS011;8199;51.310;9.466;2023-08-17T15:09:35;6.68;;;6.07;;